Time;durP1;ratioP1;P1;durP2;ratioP2;P2;SDS_P1;SDS_P2;PMS_P1;PMS_P2;Temp;Humidity;BMP_temperature;BMP_pressure;BME280_temperature;BME280_humidity;BME280_pressure;Samples;Min_cycle;Max_cycle;Signal;HPM_P1;HPM_P2
2022/03/19 00:00:51;;;;;;;18.38;5.32;;;;;;;;;;5055023;28;20072;-62
2022/03/19 00:03:18;;;;;;;27.73;6.70;;;;;;;;;;5049501;28;20535;-62
2022/03/19 00:05:45;;;;;;;14.90;4.13;;;;;;;;;;5053217;28;20053;-61
2022/03/19 00:08:11;;;;;;;12.68;3.22;;;;;;;;;;5051102;28;20045;-61
2022/03/19 00:10:38;;;;;;;13.05;2.65;;;;;;;;;;5054423;28;20111;-61
2022/03/19 00:13:04;;;;;;;15.88;3.55;;;;;;;;;;5053507;28;20076;-61
2022/03/19 00:15:31;;;;;;;15.68;3.83;;;;;;;;;;5054394;28;20048;-62
2022/03/19 00:17:57;;;;;;;17.67;2.92;;;;;;;;;;5060305;28;20041;-61
2022/03/19 00:20:23;;;;;;;16.65;2.45;;;;;;;;;;5056871;28;20057;-61
2022/03/19 00:22:50;;;;;;;12.50;2.42;;;;;;;;;;5047885;28;20052;-62
2022/03/19 00:25:16;;;;;;;14.45;2.85;;;;;;;;;;5048419;28;20490;-61
2022/03/19 00:27:42;;;;;;;16.95;2.70;;;;;;;;;;5050125;28;20416;-62
2022/03/19 00:30:09;;;;;;;13.70;2.20;;;;;;;;;;5068060;28;20337;-61
2022/03/19 00:32:36;;;;;;;11.95;2.10;;;;;;;;;;5070252;28;20063;-61
2022/03/19 00:35:03;;;;;;;16.38;2.20;;;;;;;;;;5058310;28;20059;-61
2022/03/19 00:37:30;;;;;;;15.88;3.40;;;;;;;;;;5052807;28;20143;-61
2022/03/19 00:39:56;;;;;;;11.40;2.33;;;;;;;;;;5058360;28;20057;-61
2022/03/19 00:42:22;;;;;;;18.35;2.85;;;;;;;;;;5090669;28;20053;-61
2022/03/19 00:44:48;;;;;;;9.35;2.25;;;;;;;;;;5057903;28;20041;-61
2022/03/19 00:47:15;;;;;;;12.68;2.67;;;;;;;;;;5089508;28;20063;-62
2022/03/19 00:49:41;;;;;;;18.30;2.13;;;;;;;;;;5097376;28;20556;-61
2022/03/19 00:52:07;;;;;;;16.08;2.80;;;;;;;;;;5056974;28;20446;-61
2022/03/19 00:54:33;;;;;;;15.95;2.42;;;;;;;;;;5058759;28;20037;-62
2022/03/19 00:56:59;;;;;;;10.80;2.10;;;;;;;;;;5099216;28;20048;-61
2022/03/19 00:59:25;;;;;;;14.02;1.70;;;;;;;;;;5077940;28;20510;-61
2022/03/19 01:01:51;;;;;;;10.68;2.17;;;;;;;;;;5096789;28;20716;-61
2022/03/19 01:04:17;;;;;;;14.93;2.55;;;;;;;;;;5075502;28;20138;-61
2022/03/19 01:06:44;;;;;;;16.48;2.33;;;;;;;;;;5074347;28;20071;-61
2022/03/19 01:09:10;;;;;;;10.13;2.63;;;;;;;;;;5094150;28;20044;-61
2022/03/19 01:11:36;;;;;;;20.48;3.22;;;;;;;;;;5075868;28;20036;-61
2022/03/19 01:14:02;;;;;;;16.33;2.47;;;;;;;;;;5093770;28;20056;-61
2022/03/19 01:16:28;;;;;;;16.38;2.30;;;;;;;;;;5094632;28;20055;-62
2022/03/19 01:18:54;;;;;;;15.40;2.30;;;;;;;;;;5075865;28;20093;-61
2022/03/19 01:21:21;;;;;;;14.88;3.47;;;;;;;;;;5097748;28;20047;-61
2022/03/19 01:23:47;;;;;;;15.30;2.75;;;;;;;;;;5107557;28;20128;-61
2022/03/19 01:26:13;;;;;;;19.88;2.85;;;;;;;;;;5091823;28;20062;-61
2022/03/19 01:28:39;;;;;;;16.05;3.28;;;;;;;;;;5071151;28;20162;-61
2022/03/19 01:31:05;;;;;;;15.98;3.33;;;;;;;;;;5080958;28;20040;-61
2022/03/19 01:33:31;;;;;;;21.77;2.75;;;;;;;;;;5072998;28;20048;-61
2022/03/19 01:35:58;;;;;;;16.85;1.95;;;;;;;;;;5076215;28;20126;-61
2022/03/19 01:38:24;;;;;;;16.27;2.70;;;;;;;;;;5095656;28;20119;-61
2022/03/19 01:40:50;;;;;;;22.45;3.95;;;;;;;;;;5096608;28;20048;-61
2022/03/19 01:43:16;;;;;;;19.02;2.35;;;;;;;;;;5092641;28;20482;-61
2022/03/19 01:45:42;;;;;;;17.92;2.47;;;;;;;;;;5093627;28;20043;-61
2022/03/19 01:48:09;;;;;;;19.35;3.95;;;;;;;;;;5086672;28;20513;-61
2022/03/19 01:50:35;;;;;;;20.27;3.25;;;;;;;;;;5093327;28;20043;-61
2022/03/19 01:53:01;;;;;;;20.70;2.80;;;;;;;;;;5097381;28;20114;-61
2022/03/19 01:55:28;;;;;;;18.05;2.90;;;;;;;;;;5106720;28;20067;-61
2022/03/19 01:57:56;;;;;;;18.70;2.50;;;;;;;;;;5093093;28;20383;-61
2022/03/19 02:00:23;;;;;;;18.42;2.80;;;;;;;;;;5076315;28;20387;-61
2022/03/19 02:02:50;;;;;;;20.88;2.92;;;;;;;;;;5091636;28;20048;-61
2022/03/19 02:05:17;;;;;;;12.43;2.30;;;;;;;;;;5091689;28;20202;-62
2022/03/19 02:07:44;;;;;;;15.48;3.15;;;;;;;;;;5099571;28;20059;-61
2022/03/19 02:10:11;;;;;;;16.20;2.50;;;;;;;;;;5098238;28;20036;-62
2022/03/19 02:12:38;;;;;;;19.15;3.00;;;;;;;;;;5103110;28;20059;-61
2022/03/19 02:15:04;;;;;;;17.55;3.50;;;;;;;;;;5095920;28;20036;-61
2022/03/19 02:17:31;;;;;;;20.15;2.75;;;;;;;;;;5082422;28;20044;-61
2022/03/19 02:19:57;;;;;;;12.88;3.10;;;;;;;;;;5100203;28;20482;-61
2022/03/19 02:22:24;;;;;;;13.98;2.53;;;;;;;;;;5073648;28;20052;-61
2022/03/19 02:27:36;;;;;;;18.52;2.45;;;;;;;;;;5091809;28;20048;-61
2022/03/19 02:30:04;;;;;;;18.20;2.85;;;;;;;;;;5095917;28;20455;-61
2022/03/19 02:32:30;;;;;;;17.85;2.80;;;;;;;;;;5082067;28;20055;-61
2022/03/19 02:34:56;;;;;;;10.85;2.60;;;;;;;;;;5093743;28;20036;-62
2022/03/19 02:37:23;;;;;;;20.33;3.47;;;;;;;;;;5073637;28;20070;-61
2022/03/19 02:39:49;;;;;;;14.15;3.25;;;;;;;;;;5093747;28;20050;-61
2022/03/19 02:42:16;;;;;;;21.55;4.00;;;;;;;;;;5094459;28;20465;-62
2022/03/19 02:44:43;;;;;;;11.43;2.80;;;;;;;;;;5096362;28;20121;-61
2022/03/19 02:47:09;;;;;;;17.83;2.97;;;;;;;;;;5093732;28;20047;-61
2022/03/19 02:49:35;;;;;;;16.75;2.95;;;;;;;;;;5096212;28;20060;-61
2022/03/19 02:52:02;;;;;;;20.60;3.60;;;;;;;;;;5093222;28;20085;-62
2022/03/19 02:54:29;;;;;;;22.23;3.22;;;;;;;;;;5060919;28;20112;-61
2022/03/19 02:56:56;;;;;;;18.13;3.05;;;;;;;;;;5096788;28;20093;-61
2022/03/19 02:59:24;;;;;;;18.58;4.80;;;;;;;;;;5089648;28;20056;-61
2022/03/19 03:01:51;;;;;;;20.05;3.28;;;;;;;;;;5074878;28;20039;-61
2022/03/19 03:04:18;;;;;;;17.20;3.03;;;;;;;;;;5095214;28;20136;-61
2022/03/19 03:06:45;;;;;;;24.05;3.42;;;;;;;;;;5095123;28;20040;-61
2022/03/19 03:09:12;;;;;;;17.45;2.75;;;;;;;;;;5074358;28;20059;-62
2022/03/19 03:11:39;;;;;;;13.00;3.53;;;;;;;;;;5095870;28;20063;-61
2022/03/19 03:14:06;;;;;;;15.85;2.92;;;;;;;;;;5091074;28;20105;-61
2022/03/19 03:16:32;;;;;;;21.55;3.30;;;;;;;;;;5072730;28;20043;-61
2022/03/19 03:19:01;;;;;;;17.52;4.70;;;;;;;;;;5089363;28;20036;-61
2022/03/19 03:21:28;;;;;;;14.73;3.33;;;;;;;;;;5090300;28;20457;-61
2022/03/19 03:23:54;;;;;;;20.75;3.10;;;;;;;;;;5072077;28;20048;-61
2022/03/19 03:26:21;;;;;;;20.02;4.15;;;;;;;;;;5071391;28;20125;-61
2022/03/19 03:28:47;;;;;;;23.20;3.60;;;;;;;;;;5090349;28;20439;-61
2022/03/19 03:31:13;;;;;;;18.33;3.25;;;;;;;;;;5108074;27;20032;-61
2022/03/19 03:33:39;;;;;;;28.40;5.38;;;;;;;;;;5088191;28;20032;-61
2022/03/19 03:36:06;;;;;;;16.98;4.35;;;;;;;;;;5083851;28;20035;-61
2022/03/19 03:38:32;;;;;;;19.45;4.75;;;;;;;;;;5083732;28;20101;-61
2022/03/19 03:40:58;;;;;;;15.65;3.33;;;;;;;;;;5087322;28;20123;-61
2022/03/19 03:43:24;;;;;;;17.73;3.65;;;;;;;;;;5090253;28;20059;-61
2022/03/19 03:45:51;;;;;;;22.40;4.72;;;;;;;;;;5090978;28;20039;-61
2022/03/19 03:48:17;;;;;;;18.27;3.13;;;;;;;;;;5091794;28;20085;-62
2022/03/19 03:50:43;;;;;;;16.30;4.45;;;;;;;;;;5092073;28;20050;-61
2022/03/19 03:53:09;;;;;;;18.33;4.13;;;;;;;;;;5093926;28;20085;-61
2022/03/19 03:55:38;;;;;;;18.17;3.72;;;;;;;;;;5095246;28;20043;-61
2022/03/19 03:58:04;;;;;;;20.00;3.85;;;;;;;;;;5091576;28;20048;-61
2022/03/19 04:00:31;;;;;;;23.02;3.90;;;;;;;;;;5090169;28;20067;-61
2022/03/19 04:02:58;;;;;;;12.57;3.78;;;;;;;;;;5096012;28;20116;-61
2022/03/19 04:05:24;;;;;;;20.73;4.22;;;;;;;;;;5105748;28;20050;-61
2022/03/19 04:07:50;;;;;;;21.92;4.15;;;;;;;;;;5092590;28;20118;-61
2022/03/19 04:10:17;;;;;;;17.48;3.85;;;;;;;;;;5090197;28;20047;-62
2022/03/19 04:12:43;;;;;;;16.48;3.72;;;;;;;;;;5088563;28;20051;-61
2022/03/19 04:15:11;;;;;;;15.57;5.20;;;;;;;;;;5072012;28;20042;-61
2022/03/19 04:17:37;;;;;;;21.63;4.75;;;;;;;;;;5090306;28;20162;-61
2022/03/19 04:20:05;;;;;;;19.42;4.32;;;;;;;;;;5072802;28;20044;-61
2022/03/19 04:22:33;;;;;;;15.98;4.07;;;;;;;;;;5091848;28;20048;-61
2022/03/19 04:24:59;;;;;;;16.75;3.90;;;;;;;;;;5092476;28;20058;-61
2022/03/19 04:27:26;;;;;;;20.88;3.50;;;;;;;;;;5091129;28;20032;-61
2022/03/19 04:29:52;;;;;;;25.15;4.63;;;;;;;;;;5093329;28;20036;-62
2022/03/19 04:32:18;;;;;;;22.70;4.65;;;;;;;;;;5092657;28;20120;-61
2022/03/19 04:34:44;;;;;;;21.15;5.40;;;;;;;;;;5074670;28;20142;-62
2022/03/19 04:37:10;;;;;;;16.75;3.97;;;;;;;;;;5074522;28;20069;-61
2022/03/19 04:39:36;;;;;;;14.65;4.05;;;;;;;;;;5074540;28;20487;-62
2022/03/19 04:42:03;;;;;;;18.95;3.97;;;;;;;;;;5091307;28;20555;-61
2022/03/19 04:44:29;;;;;;;20.80;4.32;;;;;;;;;;5073843;28;20051;-61
2022/03/19 04:46:55;;;;;;;18.45;4.57;;;;;;;;;;5093448;28;20119;-62
2022/03/19 04:49:21;;;;;;;29.17;7.05;;;;;;;;;;5095059;28;20036;-61
2022/03/19 04:51:49;;;;;;;20.77;4.65;;;;;;;;;;5092968;28;20035;-61
2022/03/19 04:54:16;;;;;;;19.67;4.57;;;;;;;;;;5098014;28;20047;-61
2022/03/19 04:56:42;;;;;;;22.40;5.13;;;;;;;;;;5090695;28;20048;-61
2022/03/19 04:59:11;;;;;;;24.48;5.07;;;;;;;;;;5091402;28;20458;-61
2022/03/19 05:01:39;;;;;;;25.17;5.00;;;;;;;;;;5091954;28;20036;-61
2022/03/19 05:04:06;;;;;;;18.67;4.88;;;;;;;;;;5093660;28;20055;-61
2022/03/19 05:06:32;;;;;;;20.13;4.82;;;;;;;;;;5097480;28;20119;-61
2022/03/19 05:11:43;;;;;;;24.25;6.55;;;;;;;;;;5091496;28;20052;-61
2022/03/19 05:14:10;;;;;;;22.55;5.35;;;;;;;;;;5090933;28;20043;-62
2022/03/19 05:16:36;;;;;;;24.67;6.82;;;;;;;;;;5091518;28;20036;-61
2022/03/19 05:19:03;;;;;;;22.00;5.93;;;;;;;;;;5090659;28;20040;-61
2022/03/19 05:21:29;;;;;;;22.00;6.03;;;;;;;;;;5091635;28;20043;-61
2022/03/19 05:23:55;;;;;;;31.65;7.80;;;;;;;;;;5110389;27;20675;-61
2022/03/19 05:26:22;;;;;;;23.85;6.63;;;;;;;;;;5071623;28;20063;-61
2022/03/19 05:28:48;;;;;;;21.13;5.93;;;;;;;;;;5092793;28;20058;-61
2022/03/19 05:31:14;;;;;;;18.75;5.45;;;;;;;;;;5093263;28;20483;-61
2022/03/19 05:36:27;;;;;;;22.02;6.97;;;;;;;;;;5093460;28;20048;-62
2022/03/19 05:38:53;;;;;;;22.80;6.00;;;;;;;;;;5094857;28;20048;-61
2022/03/19 05:41:20;;;;;;;22.00;5.80;;;;;;;;;;5073014;28;20457;-61
2022/03/19 05:43:46;;;;;;;25.40;6.60;;;;;;;;;;5087842;28;20154;-61
2022/03/19 05:46:13;;;;;;;21.10;5.85;;;;;;;;;;5091944;28;20048;-61
2022/03/19 05:48:39;;;;;;;27.67;7.95;;;;;;;;;;5093019;28;20093;-62
2022/03/19 05:51:05;;;;;;;24.05;6.28;;;;;;;;;;5075474;28;20047;-61
2022/03/19 05:53:31;;;;;;;21.45;6.32;;;;;;;;;;5099938;28;20059;-61
2022/03/19 05:55:57;;;;;;;27.70;8.00;;;;;;;;;;5097269;28;20054;-61
2022/03/19 05:58:25;;;;;;;28.27;6.65;;;;;;;;;;5105049;28;20056;-61
2022/03/19 06:00:51;;;;;;;19.75;5.80;;;;;;;;;;5105338;27;20040;-61
2022/03/19 06:03:17;;;;;;;27.73;7.82;;;;;;;;;;5089517;28;20051;-61
2022/03/19 06:05:43;;;;;;;20.35;6.03;;;;;;;;;;5091046;28;20127;-61
2022/03/19 06:08:09;;;;;;;32.22;9.07;;;;;;;;;;5093848;28;20035;-61
2022/03/19 06:10:35;;;;;;;25.33;6.40;;;;;;;;;;5079856;28;20124;-61
2022/03/19 06:13:03;;;;;;;24.85;7.10;;;;;;;;;;5071511;28;20076;-61
2022/03/19 06:15:29;;;;;;;20.35;5.85;;;;;;;;;;5089536;28;20048;-61
2022/03/19 06:17:55;;;;;;;16.77;6.13;;;;;;;;;;5072659;28;20083;-61
2022/03/19 06:20:23;;;;;;;24.67;6.97;;;;;;;;;;5090558;28;20044;-62
2022/03/19 06:22:49;;;;;;;22.83;6.53;;;;;;;;;;5089086;28;20056;-62
2022/03/19 06:25:16;;;;;;;25.70;6.18;;;;;;;;;;5090145;28;20495;-62
2022/03/19 06:27:42;;;;;;;23.17;6.65;;;;;;;;;;5093214;28;20372;-62
2022/03/19 06:30:09;;;;;;;21.92;5.72;;;;;;;;;;5110341;27;20517;-62
2022/03/19 06:32:41;;;;;;;24.50;7.20;;;;;;;;;;5111993;27;20527;-62
2022/03/19 06:35:08;;;;;;;20.38;6.22;;;;;;;;;;5078877;28;20040;-62
2022/03/19 06:37:34;;;;;;;19.27;6.72;;;;;;;;;;5092763;28;20048;-62
2022/03/19 06:40:06;;;;;;;19.65;7.20;;;;;;;;;;5095521;28;20386;-61
2022/03/19 06:42:33;;;;;;;25.33;7.60;;;;;;;;;;5111200;27;20147;-61
2022/03/19 06:44:59;;;;;;;21.42;7.35;;;;;;;;;;5095534;28;20039;-62
2022/03/19 06:47:26;;;;;;;20.73;7.20;;;;;;;;;;5099558;28;20086;-62
2022/03/19 06:49:52;;;;;;;26.10;7.00;;;;;;;;;;5084875;28;20134;-62
2022/03/19 06:52:20;;;;;;;23.35;7.78;;;;;;;;;;5092264;28;20036;-62
2022/03/19 06:54:46;;;;;;;21.77;7.25;;;;;;;;;;5073134;28;20548;-62
2022/03/19 06:57:12;;;;;;;20.70;7.72;;;;;;;;;;5071414;28;20051;-61
2022/03/19 06:59:39;;;;;;;21.67;7.20;;;;;;;;;;5089039;28;20099;-61
2022/03/19 07:02:05;;;;;;;25.58;7.85;;;;;;;;;;5073394;28;20063;-62
2022/03/19 07:04:31;;;;;;;29.40;7.43;;;;;;;;;;5089417;28;20040;-61
2022/03/19 07:06:57;;;;;;;24.10;8.35;;;;;;;;;;5091274;28;20043;-62
2022/03/19 07:09:23;;;;;;;28.67;8.25;;;;;;;;;;5074810;28;20052;-61
2022/03/19 07:11:49;;;;;;;20.98;8.13;;;;;;;;;;5089568;28;20043;-62
2022/03/19 07:14:17;;;;;;;25.77;9.18;;;;;;;;;;5070807;28;20505;-62
2022/03/19 07:16:44;;;;;;;22.92;7.68;;;;;;;;;;5092455;28;20044;-62
2022/03/19 07:19:10;;;;;;;24.08;8.43;;;;;;;;;;5090150;28;20466;-62
2022/03/19 07:21:36;;;;;;;20.67;8.23;;;;;;;;;;5091742;28;20039;-62
2022/03/19 07:24:02;;;;;;;33.22;7.88;;;;;;;;;;5090786;28;20047;-62
2022/03/19 07:26:32;;;;;;;23.60;7.75;;;;;;;;;;5089868;28;20458;-62
2022/03/19 07:28:58;;;;;;;23.35;7.82;;;;;;;;;;5089730;28;20040;-61
2022/03/19 07:31:25;;;;;;;27.73;8.45;;;;;;;;;;5087907;28;20048;-62
2022/03/19 07:33:51;;;;;;;23.58;7.80;;;;;;;;;;5090031;28;20501;-62
2022/03/19 07:36:21;;;;;;;29.23;9.00;;;;;;;;;;5087991;28;20028;-63
2022/03/19 07:38:47;;;;;;;28.60;7.95;;;;;;;;;;5089855;28;20071;-62
2022/03/19 07:41:48;;;;;;;21.52;7.88;;;;;;;;;;5086715;28;20071;-62
2022/03/19 07:44:12;;;;;;;25.95;7.55;;;;;;;;;;5090466;28;20048;-62
2022/03/19 07:46:41;;;;;;;19.92;7.97;;;;;;;;;;5090046;28;20054;-62
2022/03/19 07:49:08;;;;;;;21.85;8.85;;;;;;;;;;5090607;28;20040;-62
2022/03/19 07:51:34;;;;;;;24.45;8.43;;;;;;;;;;5089434;28;20139;-61
2022/03/19 07:54:00;;;;;;;18.02;7.88;;;;;;;;;;5090936;28;20091;-62
2022/03/19 07:56:26;;;;;;;29.30;7.72;;;;;;;;;;5091148;28;20067;-61
2022/03/19 07:58:53;;;;;;;29.33;8.10;;;;;;;;;;5091383;28;20048;-62
2022/03/19 08:01:19;;;;;;;19.73;7.03;;;;;;;;;;5090831;28;20497;-62
2022/03/19 08:03:46;;;;;;;22.92;7.20;;;;;;;;;;5087808;28;20044;-61
2022/03/19 08:06:13;;;;;;;21.45;7.95;;;;;;;;;;5089883;28;20082;-62
2022/03/19 08:08:39;;;;;;;19.30;6.30;;;;;;;;;;5092236;28;20044;-61
2022/03/19 08:11:07;;;;;;;21.90;6.85;;;;;;;;;;5091434;28;20032;-62
2022/03/19 08:13:33;;;;;;;21.27;5.95;;;;;;;;;;5074065;28;20036;-61
2022/03/19 08:15:59;;;;;;;20.98;6.15;;;;;;;;;;5090390;28;20036;-62
2022/03/19 08:18:25;;;;;;;22.85;7.05;;;;;;;;;;5091290;28;20570;-61
2022/03/19 08:20:52;;;;;;;27.08;6.72;;;;;;;;;;5090878;28;20040;-62
2022/03/19 08:23:20;;;;;;;23.33;6.80;;;;;;;;;;5086751;28;20466;-62
2022/03/19 08:25:46;;;;;;;23.38;7.40;;;;;;;;;;5073598;28;20340;-61
2022/03/19 08:28:12;;;;;;;25.63;6.68;;;;;;;;;;5089646;28;20044;-62
2022/03/19 08:30:38;;;;;;;21.15;6.45;;;;;;;;;;5072802;28;20131;-62
2022/03/19 08:33:05;;;;;;;18.88;5.82;;;;;;;;;;5091429;28;20435;-62
2022/03/19 08:35:31;;;;;;;26.10;7.15;;;;;;;;;;5090161;28;20085;-62
2022/03/19 08:40:42;;;;;;;19.58;5.22;;;;;;;;;;5088819;28;20546;-62
2022/03/19 08:43:08;;;;;;;19.25;5.22;;;;;;;;;;5092124;28;20498;-62
2022/03/19 08:45:34;;;;;;;20.20;5.40;;;;;;;;;;5091701;28;20111;-63
2022/03/19 08:48:01;;;;;;;19.25;5.97;;;;;;;;;;5094918;28;20040;-63
2022/03/19 08:50:28;;;;;;;18.38;5.55;;;;;;;;;;5075933;28;20113;-62
2022/03/19 08:52:55;;;;;;;15.25;4.85;;;;;;;;;;5094962;28;20040;-62
2022/03/19 08:55:21;;;;;;;21.55;4.07;;;;;;;;;;5094228;28;20063;-63
2022/03/19 08:57:47;;;;;;;20.75;4.20;;;;;;;;;;5090014;28;20084;-62
2022/03/19 09:00:14;;;;;;;12.20;3.80;;;;;;;;;;5088468;28;20361;-62
2022/03/19 09:02:41;;;;;;;11.63;3.50;;;;;;;;;;5078649;28;20044;-62
2022/03/19 09:05:07;;;;;;;16.75;4.15;;;;;;;;;;5095261;28;20040;-62
2022/03/19 09:07:34;;;;;;;17.15;3.70;;;;;;;;;;5092645;28;20756;-63
2022/03/19 09:10:00;;;;;;;14.40;3.47;;;;;;;;;;5075636;28;20451;-62
2022/03/19 09:12:26;;;;;;;23.38;3.78;;;;;;;;;;5094422;28;20036;-62
2022/03/19 09:14:53;;;;;;;12.85;3.42;;;;;;;;;;5074311;28;20047;-62
2022/03/19 09:17:19;;;;;;;11.43;3.50;;;;;;;;;;5093024;28;20051;-62
2022/03/19 09:19:46;;;;;;;13.40;3.83;;;;;;;;;;5095215;28;20163;-62
2022/03/19 09:22:12;;;;;;;23.42;4.25;;;;;;;;;;5075595;28;20048;-62
2022/03/19 09:24:39;;;;;;;17.90;4.05;;;;;;;;;;5073170;28;20047;-62
2022/03/19 09:27:05;;;;;;;14.32;2.72;;;;;;;;;;5072080;28;20368;-61
2022/03/19 09:29:32;;;;;;;16.05;4.05;;;;;;;;;;5088825;28;20040;-62
2022/03/19 09:31:58;;;;;;;12.25;2.95;;;;;;;;;;5090564;28;20044;-62
2022/03/19 09:34:24;;;;;;;12.27;2.97;;;;;;;;;;5093247;28;20051;-62
2022/03/19 09:36:51;;;;;;;16.33;3.88;;;;;;;;;;5092452;28;20483;-62
2022/03/19 09:39:17;;;;;;;14.77;2.88;;;;;;;;;;5091961;28;20052;-62
2022/03/19 09:41:43;;;;;;;13.32;3.08;;;;;;;;;;5108099;28;20055;-62
2022/03/19 09:44:12;;;;;;;12.68;2.80;;;;;;;;;;5092155;28;20491;-62
2022/03/19 09:46:39;;;;;;;14.77;4.20;;;;;;;;;;5091995;28;20036;-62
2022/03/19 09:49:05;;;;;;;10.13;3.20;;;;;;;;;;5073353;28;20119;-62
2022/03/19 09:51:33;;;;;;;15.88;3.70;;;;;;;;;;5092513;28;20143;-62
2022/03/19 09:53:59;;;;;;;10.70;2.67;;;;;;;;;;5091973;28;20032;-62
2022/03/19 09:56:25;;;;;;;11.38;2.58;;;;;;;;;;5092418;28;20427;-62
2022/03/19 09:58:52;;;;;;;10.57;2.80;;;;;;;;;;5092402;28;20072;-62
2022/03/19 10:01:19;;;;;;;12.20;2.90;;;;;;;;;;5073236;28;20043;-62
2022/03/19 10:03:45;;;;;;;13.60;2.63;;;;;;;;;;5084965;28;20147;-62
2022/03/19 10:08:58;;;;;;;11.43;2.70;;;;;;;;;;5070368;28;20086;-62
2022/03/19 10:11:28;;;;;;;9.27;2.38;;;;;;;;;;5090244;28;20036;-62
2022/03/19 10:13:54;;;;;;;11.65;2.47;;;;;;;;;;5072701;28;20078;-62
2022/03/19 10:16:22;;;;;;;12.10;2.75;;;;;;;;;;5091525;28;20116;-61
2022/03/19 10:18:55;;;;;;;13.52;2.90;;;;;;;;;;5107787;28;20065;-61
2022/03/19 10:21:22;;;;;;;14.02;3.08;;;;;;;;;;5090340;28;20036;-61
2022/03/19 10:23:48;;;;;;;9.30;2.65;;;;;;;;;;5070251;28;20055;-62
2022/03/19 10:26:23;;;;;;;9.27;2.08;;;;;;;;;;5091961;28;20036;-61
2022/03/19 10:28:58;;;;;;;13.63;2.83;;;;;;;;;;5091384;28;20434;-62
2022/03/19 10:31:31;;;;;;;10.00;3.42;;;;;;;;;;5074377;28;20044;-61
2022/03/19 10:33:57;;;;;;;9.43;2.33;;;;;;;;;;5093059;28;20061;-61
2022/03/19 10:36:34;;;;;;;10.13;2.45;;;;;;;;;;5069334;28;20044;-62
2022/03/19 10:39:01;;;;;;;8.98;2.15;;;;;;;;;;5073629;28;20068;-61
2022/03/19 10:41:33;;;;;;;10.68;2.53;;;;;;;;;;5091989;28;20049;-61
2022/03/19 10:44:09;;;;;;;6.85;1.83;;;;;;;;;;5093717;28;20113;-61
2022/03/19 10:46:35;;;;;;;10.05;1.98;;;;;;;;;;5092438;28;20479;-61
2022/03/19 10:49:01;;;;;;;10.85;2.38;;;;;;;;;;5073209;28;20048;-62
2022/03/19 10:51:31;;;;;;;10.13;1.92;;;;;;;;;;5092351;28;20074;-61
2022/03/19 10:53:57;;;;;;;10.88;2.58;;;;;;;;;;5092315;28;20391;-62
2022/03/19 10:56:24;;;;;;;18.70;2.97;;;;;;;;;;5088735;28;20077;-62
2022/03/19 10:58:50;;;;;;;14.77;2.60;;;;;;;;;;5091618;28;20047;-63
2022/03/19 11:01:17;;;;;;;12.07;3.55;;;;;;;;;;5090860;28;20032;-61
2022/03/19 11:03:45;;;;;;;12.85;3.72;;;;;;;;;;5088814;28;20453;-62
2022/03/19 11:06:11;;;;;;;9.73;3.28;;;;;;;;;;5090779;28;20040;-62
2022/03/19 11:08:39;;;;;;;13.20;4.10;;;;;;;;;;5090813;28;20475;-62
2022/03/19 11:11:09;;;;;;;18.25;3.22;;;;;;;;;;5089081;28;20441;-62
2022/03/19 11:13:39;;;;;;;11.82;2.60;;;;;;;;;;5071631;28;20044;-61
2022/03/19 11:16:06;;;;;;;9.70;2.40;;;;;;;;;;5072526;28;20036;-62
2022/03/19 11:18:33;;;;;;;10.82;2.90;;;;;;;;;;5090005;28;20048;-62
2022/03/19 11:21:00;;;;;;;9.85;2.70;;;;;;;;;;5091056;28;20043;-62
2022/03/19 11:23:31;;;;;;;8.35;2.58;;;;;;;;;;5090540;28;20048;-63
2022/03/19 11:25:58;;;;;;;9.27;2.42;;;;;;;;;;5092651;28;20387;-63
2022/03/19 11:28:25;;;;;;;7.18;2.35;;;;;;;;;;5090531;28;20131;-62
2022/03/19 11:31:00;;;;;;;11.63;2.85;;;;;;;;;;5068268;28;20076;-62
2022/03/19 11:33:27;;;;;;;6.40;2.33;;;;;;;;;;5090448;28;20048;-63
2022/03/19 11:36:04;;;;;;;8.88;2.00;;;;;;;;;;5089915;28;20040;-62
2022/03/19 11:38:31;;;;;;;9.65;2.20;;;;;;;;;;5105203;28;20079;-62
2022/03/19 11:40:58;;;;;;;10.40;3.00;;;;;;;;;;5086059;28;20041;-63
2022/03/19 11:43:25;;;;;;;10.43;2.20;;;;;;;;;;5090447;28;20047;-63
2022/03/19 11:45:54;;;;;;;9.93;1.90;;;;;;;;;;5094924;28;20087;-62
2022/03/19 11:48:36;;;;;;;7.20;2.05;;;;;;;;;;5101197;28;20119;-62
2022/03/19 11:51:22;;;;;;;7.35;1.65;;;;;;;;;;5089404;28;20513;-63
2022/03/19 11:54:00;;;;;;;7.53;2.30;;;;;;;;;;5087216;28;20051;-63
2022/03/19 11:56:36;;;;;;;8.20;2.25;;;;;;;;;;5089076;28;20135;-63
2022/03/19 11:59:08;;;;;;;8.88;2.05;;;;;;;;;;5092701;28;20499;-62
2022/03/19 12:01:47;;;;;;;5.68;1.70;;;;;;;;;;5072512;28;20058;-62
2022/03/19 12:04:13;;;;;;;10.02;2.13;;;;;;;;;;5088282;28;20054;-62
2022/03/19 12:06:49;;;;;;;8.05;2.25;;;;;;;;;;5070872;28;20494;-62
2022/03/19 12:09:15;;;;;;;7.03;1.83;;;;;;;;;;5089619;28;20142;-62
2022/03/19 12:12:02;;;;;;;7.47;1.70;;;;;;;;;;5103469;28;20040;-62
2022/03/19 12:14:28;;;;;;;9.93;2.17;;;;;;;;;;5090655;28;20036;-63
2022/03/19 12:16:54;;;;;;;7.82;2.00;;;;;;;;;;5071406;28;20479;-62
2022/03/19 12:19:40;;;;;;;5.63;1.65;;;;;;;;;;5094236;28;20105;-62
2022/03/19 12:22:06;;;;;;;9.50;1.90;;;;;;;;;;5092913;28;20036;-62
2022/03/19 12:24:39;;;;;;;6.68;1.92;;;;;;;;;;5094352;28;20076;-62
2022/03/19 12:27:05;;;;;;;6.85;1.58;;;;;;;;;;5093022;28;20040;-62
2022/03/19 12:29:32;;;;;;;9.20;2.00;;;;;;;;;;5075949;28;20074;-62
2022/03/19 12:31:59;;;;;;;7.38;1.85;;;;;;;;;;5093984;28;20097;-62
2022/03/19 12:34:26;;;;;;;8.70;1.73;;;;;;;;;;5074578;28;20429;-62
2022/03/19 12:36:58;;;;;;;8.07;2.08;;;;;;;;;;5108513;28;20399;-62
2022/03/19 12:39:24;;;;;;;7.30;2.33;;;;;;;;;;5091247;28;20411;-62
2022/03/19 12:41:51;;;;;;;6.93;1.83;;;;;;;;;;5072454;28;20040;-62
2022/03/19 12:44:19;;;;;;;10.32;2.72;;;;;;;;;;5092180;28;20040;-62
2022/03/19 12:46:47;;;;;;;9.68;2.85;;;;;;;;;;5091964;28;20032;-62
2022/03/19 12:49:15;;;;;;;7.82;2.42;;;;;;;;;;5090426;28;20040;-63
2022/03/19 12:51:45;;;;;;;10.13;2.70;;;;;;;;;;5072109;28;20048;-63
2022/03/19 12:54:20;;;;;;;8.95;2.38;;;;;;;;;;5090975;28;20482;-63
2022/03/19 12:56:47;;;;;;;12.98;2.90;;;;;;;;;;5090513;28;20048;-62
2022/03/19 12:59:18;;;;;;;10.23;3.10;;;;;;;;;;5091875;28;20491;-62
2022/03/19 13:01:45;;;;;;;10.07;2.70;;;;;;;;;;5073056;28;20060;-62
2022/03/19 13:04:18;;;;;;;10.35;2.33;;;;;;;;;;5089142;28;20044;-62
2022/03/19 13:06:44;;;;;;;8.82;2.22;;;;;;;;;;5091648;28;20044;-62
2022/03/19 13:09:11;;;;;;;13.80;3.00;;;;;;;;;;5091323;28;20407;-62
2022/03/19 13:11:45;;;;;;;9.43;2.55;;;;;;;;;;5090534;28;20043;-63
2022/03/19 13:14:13;;;;;;;9.05;2.70;;;;;;;;;;5091435;28;20033;-63
2022/03/19 13:16:39;;;;;;;10.70;2.83;;;;;;;;;;5089022;28;20232;-63
2022/03/19 13:19:06;;;;;;;11.20;2.50;;;;;;;;;;5087302;28;20403;-64
2022/03/19 13:21:33;;;;;;;9.65;2.30;;;;;;;;;;5088339;28;20051;-62
2022/03/19 13:24:00;;;;;;;7.07;2.28;;;;;;;;;;5086819;28;20051;-63
2022/03/19 13:26:27;;;;;;;9.63;2.35;;;;;;;;;;5071711;28;20109;-63
2022/03/19 13:28:58;;;;;;;12.48;2.45;;;;;;;;;;5072412;28;20063;-62
2022/03/19 13:31:25;;;;;;;6.70;2.45;;;;;;;;;;5055691;28;20391;-62
2022/03/19 13:33:51;;;;;;;8.63;2.45;;;;;;;;;;5090600;28;20051;-62
2022/03/19 13:36:18;;;;;;;7.75;2.15;;;;;;;;;;5090947;28;20040;-62
2022/03/19 13:38:45;;;;;;;11.52;3.08;;;;;;;;;;5090212;28;20471;-63
2022/03/19 13:41:18;;;;;;;9.25;2.40;;;;;;;;;;5090859;28;20127;-62
2022/03/19 13:43:44;;;;;;;9.38;2.72;;;;;;;;;;5071620;28;21043;-62
